Time;durP1;ratioP1;P1;durP2;ratioP2;P2;SDS_P1;SDS_P2;PMS_P1;PMS_P2;Temp;Humidity;BMP_temperature;BMP_pressure;BME280_temperature;BME280_humidity;BME280_pressure;Samples;Min_cycle;Max_cycle;Signal;HPM_P1;HPM_P2
2023/04/02 00:00:09;;;;;;;5.88;3.38;;;;;;;;;;5120834;28;20071;-88
2023/04/02 00:02:35;;;;;;;;;;;;;;;;;;5121424;28;20064;-88
2023/04/02 00:05:19;;;;;;;6.32;3.38;;;;;;;;;;5102604;28;20014;-88
2023/04/02 00:07:49;;;;;;;6.88;3.63;;;;;;;;;;5102464;27;20055;-88
2023/04/02 00:10:26;;;;;;;7.55;3.00;;;;;;;;;;5120707;28;20404;-88
2023/04/02 00:13:23;;;;;;;6.55;3.72;;;;;;;;;;5102502;28;20144;-89
2023/04/02 00:15:50;;;;;;;8.15;4.07;;;;;;;;;;5102543;28;20107;-89
2023/04/02 00:18:17;;;;;;;5.78;3.80;;;;;;;;;;5120643;28;20030;-89
2023/04/02 00:20:46;;;;;;;5.60;3.40;;;;;;;;;;5120710;28;20060;-87
2023/04/02 00:23:13;;;;;;;5.15;3.65;;;;;;;;;;5102259;28;20031;-88
2023/04/02 00:25:42;;;;;;;6.95;3.92;;;;;;;;;;5120557;28;20031;-88
2023/04/02 00:28:21;;;;;;;7.22;4.43;;;;;;;;;;5120483;28;20043;-88
2023/04/02 00:30:55;;;;;;;5.65;3.92;;;;;;;;;;5102222;28;20015;-87
2023/04/02 00:33:22;;;;;;;8.35;4.47;;;;;;;;;;5120218;28;20320;-88
2023/04/02 00:35:50;;;;;;;6.40;3.85;;;;;;;;;;5101956;28;20314;-88
2023/04/02 00:38:25;;;;;;;5.82;3.85;;;;;;;;;;5102218;28;20032;-89
2023/04/02 00:40:52;;;;;;;6.43;3.83;;;;;;;;;;5102032;28;20027;-88
2023/04/02 00:43:19;;;;;;;8.85;4.30;;;;;;;;;;5118986;28;20103;-88
2023/04/02 00:45:49;;;;;;;7.55;4.05;;;;;;;;;;5120007;28;20028;-89
2023/04/02 00:48:24;;;;;;;6.45;4.32;;;;;;;;;;5119865;28;20027;-89
2023/04/02 00:50:52;;;;;;;8.52;4.82;;;;;;;;;;5101441;28;20409;-87
2023/04/02 00:53:25;;;;;;;10.02;5.03;;;;;;;;;;5119743;28;20115;-87
2023/04/02 00:55:51;;;;;;;6.45;3.85;;;;;;;;;;5101719;28;20031;-89
2023/04/02 00:58:48;;;;;;;7.07;3.60;;;;;;;;;;5119750;28;20410;-88
2023/04/02 01:01:18;;;;;;;8.23;5.00;;;;;;;;;;5119453;28;20020;-87
2023/04/02 01:03:52;;;;;;;8.30;5.00;;;;;;;;;;5101020;28;20096;-89
2023/04/02 01:06:19;;;;;;;9.07;4.68;;;;;;;;;;5101837;28;20058;-89
2023/04/02 01:08:48;;;;;;;7.03;4.22;;;;;;;;;;5100816;28;20067;-89
2023/04/02 01:11:22;;;;;;;7.95;4.38;;;;;;;;;;5119613;28;20102;-89
2023/04/02 01:13:51;;;;;;;6.18;4.28;;;;;;;;;;5101428;28;20064;-88
2023/04/02 01:16:31;;;;;;;10.55;4.25;;;;;;;;;;5119434;28;20047;-88
2023/04/02 01:19:17;;;;;;;5.78;4.00;;;;;;;;;;5119436;28;20102;-88
2023/04/02 01:21:46;;;;;;;12.18;3.90;;;;;;;;;;5119050;28;20410;-88
2023/04/02 01:24:12;;;;;;;10.80;3.88;;;;;;;;;;5100736;28;20051;-88
2023/04/02 01:32:46;;;;;;;5.82;3.50;;;;;;;;;;5119234;28;20027;-88
2023/04/02 01:35:12;;;;;;;6.43;3.55;;;;;;;;;;5119275;28;20038;-88
2023/04/02 01:37:45;;;;;;;7.65;3.92;;;;;;;;;;5100914;28;20410;-87
2023/04/02 01:40:15;;;;;;;5.78;3.83;;;;;;;;;;5100847;28;20070;-87
2023/04/02 01:43:03;;;;;;;10.43;3.92;;;;;;;;;;5101010;28;20413;-90
2023/04/02 01:45:29;;;;;;;6.80;4.03;;;;;;;;;;5100608;28;20477;-89
2023/04/02 01:47:55;;;;;;;7.28;4.10;;;;;;;;;;5119616;28;20095;-89
2023/04/02 01:50:21;;;;;;;7.28;4.15;;;;;;;;;;5138063;27;20019;-88
2023/04/02 01:52:52;;;;;;;6.85;3.65;;;;;;;;;;5121166;27;20054;-87
2023/04/02 01:55:24;;;;;;;5.45;3.58;;;;;;;;;;5119689;27;20031;-87
2023/04/02 01:58:05;;;;;;;;;;;;;;;;;;5101416;28;20443;-87
2023/04/02 02:00:33;;;;;;;5.32;3.60;;;;;;;;;;5118860;28;20302;-89
2023/04/02 02:03:00;;;;;;;6.68;3.70;;;;;;;;;;5118323;28;20019;-88
2023/04/02 02:05:26;;;;;;;5.60;3.75;;;;;;;;;;5118631;28;20043;-88
2023/04/02 02:07:54;;;;;;;6.88;3.65;;;;;;;;;;5099836;27;20027;-86
2023/04/02 02:10:26;;;;;;;6.03;3.90;;;;;;;;;;5118634;28;20034;-88
2023/04/02 02:12:52;;;;;;;5.88;3.78;;;;;;;;;;5118560;28;20050;-88
2023/04/02 02:15:19;;;;;;;9.15;4.65;;;;;;;;;;5099988;28;20039;-88
2023/04/02 02:17:46;;;;;;;7.28;5.20;;;;;;;;;;5118254;28;20043;-88
2023/04/02 02:20:13;;;;;;;7.95;4.97;;;;;;;;;;5118471;28;20032;-88
2023/04/02 02:22:43;;;;;;;9.48;6.00;;;;;;;;;;5100314;28;20028;-88
2023/04/02 02:25:35;;;;;;;10.30;5.75;;;;;;;;;;5100274;28;20436;-87
2023/04/02 02:34:12;;;;;;;7.18;4.60;;;;;;;;;;5118230;28;20054;-88
2023/04/02 02:36:58;;;;;;;9.43;4.90;;;;;;;;;;5118033;28;20095;-89
2023/04/02 02:39:33;;;;;;;8.57;4.85;;;;;;;;;;5117724;28;20417;-88
2023/04/02 02:42:07;;;;;;;5.25;4.13;;;;;;;;;;5118325;28;20088;-88
2023/04/02 02:44:36;;;;;;;6.30;5.13;;;;;;;;;;5118347;28;20328;-88
2023/04/02 02:47:03;;;;;;;7.82;5.18;;;;;;;;;;5117951;28;20433;-89
2023/04/02 02:49:31;;;;;;;7.43;4.30;;;;;;;;;;5099334;28;20097;-86
2023/04/02 02:51:57;;;;;;;6.93;4.13;;;;;;;;;;5118219;28;20027;-88
2023/04/02 02:54:23;;;;;;;5.43;4.15;;;;;;;;;;5117913;28;20043;-78
2023/04/02 02:56:53;;;;;;;9.30;4.90;;;;;;;;;;5117829;28;20020;-88
2023/04/02 02:59:21;;;;;;;7.75;4.78;;;;;;;;;;5117750;28;20027;-89
2023/04/02 03:01:47;;;;;;;6.72;4.18;;;;;;;;;;5117876;28;20027;-89
2023/04/02 03:04:17;;;;;;;6.75;4.43;;;;;;;;;;5117711;28;20127;-88
2023/04/02 03:06:44;;;;;;;5.95;3.75;;;;;;;;;;5119401;28;20031;-88
2023/04/02 03:09:31;;;;;;;10.10;4.40;;;;;;;;;;5103805;28;20110;-89
2023/04/02 03:12:02;;;;;;;6.18;3.90;;;;;;;;;;5103815;28;20051;-87
2023/04/02 03:14:32;;;;;;;6.88;4.50;;;;;;;;;;5121635;28;20437;-88
2023/04/02 03:17:03;;;;;;;6.30;4.10;;;;;;;;;;5121862;28;20031;-88
2023/04/02 03:19:29;;;;;;;6.30;4.60;;;;;;;;;;5121636;28;20024;-88
2023/04/02 03:21:55;;;;;;;14.10;7.18;;;;;;;;;;5121540;28;20409;-87
2023/04/02 03:24:31;;;;;;;13.88;8.05;;;;;;;;;;5121720;28;20019;-87
2023/04/02 03:27:16;;;;;;;15.45;8.20;;;;;;;;;;5103533;28;20056;-88
2023/04/02 03:29:48;;;;;;;16.00;8.63;;;;;;;;;;5102851;28;20067;-89
2023/04/02 03:32:23;;;;;;;14.18;8.80;;;;;;;;;;5103431;28;20024;-89
2023/04/02 03:34:51;;;;;;;20.48;12.90;;;;;;;;;;5121407;28;20110;-89
2023/04/02 03:37:20;;;;;;;9.13;6.40;;;;;;;;;;5122932;28;20059;-90
2023/04/02 03:39:53;;;;;;;8.68;5.80;;;;;;;;;;5121253;28;20028;-89
2023/04/02 03:42:19;;;;;;;;;;;;;;;;;;5121986;28;20036;-89
2023/04/02 03:44:47;;;;;;;8.32;5.25;;;;;;;;;;5121022;28;19914;-87
2023/04/02 03:47:25;;;;;;;6.13;4.53;;;;;;;;;;5103113;28;20019;-89
2023/04/02 03:49:52;;;;;;;7.18;4.60;;;;;;;;;;5121198;28;20028;-89
2023/04/02 03:52:22;;;;;;;12.00;6.40;;;;;;;;;;5103022;28;20106;-88
2023/04/02 03:54:48;;;;;;;9.23;6.05;;;;;;;;;;5102949;28;20027;-90
2023/04/02 03:57:35;;;;;;;13.68;6.22;;;;;;;;;;5121175;28;20309;-88
2023/04/02 04:00:15;;;;;;;9.73;5.85;;;;;;;;;;5120581;28;20043;-88
2023/04/02 04:02:44;;;;;;;9.50;5.55;;;;;;;;;;5102784;28;20077;-88
2023/04/02 04:05:28;;;;;;;8.73;5.00;;;;;;;;;;5120873;28;20027;-91
2023/04/02 04:07:56;;;;;;;8.43;4.75;;;;;;;;;;5120530;28;20023;-90
2023/04/02 04:10:25;;;;;;;6.30;3.53;;;;;;;;;;5120592;28;20031;-89
2023/04/02 04:12:52;;;;;;;5.97;4.20;;;;;;;;;;5120997;28;20016;-90
2023/04/02 04:15:35;;;;;;;8.45;5.28;;;;;;;;;;5120478;28;20028;-90
2023/04/02 04:18:04;;;;;;;14.80;8.10;;;;;;;;;;5120442;28;20028;-90
2023/04/02 04:20:46;;;;;;;15.10;10.00;;;;;;;;;;5120624;28;20050;-90
2023/04/02 04:23:30;;;;;;;12.25;8.38;;;;;;;;;;5102311;28;20093;-88
2023/04/02 04:26:08;;;;;;;22.10;17.58;;;;;;;;;;5120448;28;20111;-89
2023/04/02 04:28:58;;;;;;;24.83;16.98;;;;;;;;;;5120437;28;20290;-89
2023/04/02 04:31:45;;;;;;;18.20;12.32;;;;;;;;;;5120496;28;20023;-90
2023/04/02 04:34:15;;;;;;;18.00;12.38;;;;;;;;;;5102129;28;20027;-88
2023/04/02 04:36:53;;;;;;;18.10;8.65;;;;;;;;;;5098614;28;20024;-88
2023/04/02 04:39:38;;;;;;;10.20;6.18;;;;;;;;;;5099505;28;20299;-88
2023/04/02 04:42:04;;;;;;;7.05;5.03;;;;;;;;;;5099452;28;20070;-87
2023/04/02 04:47:38;;;;;;;6.78;4.50;;;;;;;;;;5099709;28;20101;-88
2023/04/02 04:50:11;;;;;;;7.47;3.83;;;;;;;;;;5081696;28;20322;-88
2023/04/02 04:52:39;;;;;;;6.45;3.88;;;;;;;;;;5081380;28;20406;-87
2023/04/02 04:55:24;;;;;;;6.47;3.90;;;;;;;;;;5081767;28;20040;-87
2023/04/02 04:57:50;;;;;;;5.10;3.40;;;;;;;;;;5099502;28;20028;-88
2023/04/02 05:00:54;;;;;;;8.98;5.05;;;;;;;;;;5085991;28;20031;-88
2023/04/02 05:03:33;;;;;;;23.77;11.63;;;;;;;;;;5097648;28;20036;-88
2023/04/02 05:06:09;;;;;;;21.58;13.13;;;;;;;;;;5097779;28;20036;-89
2023/04/02 05:08:37;;;;;;;41.92;24.92;;;;;;;;;;5098069;28;20028;-87
2023/04/02 05:11:06;;;;;;;63.05;34.28;;;;;;;;;;5098984;28;20076;-88
2023/04/02 05:13:57;;;;;;;87.85;46.03;;;;;;;;;;5097757;28;20109;-88
2023/04/02 05:16:46;;;;;;;54.65;31.65;;;;;;;;;;5098727;28;20024;-88
2023/04/02 05:19:32;;;;;;;32.80;19.25;;;;;;;;;;5019983;28;20080;-88
2023/04/02 05:22:01;;;;;;;25.42;14.90;;;;;;;;;;4958928;29;20127;-88
2023/04/02 05:24:38;;;;;;;21.08;12.95;;;;;;;;;;4959492;29;20101;-88
2023/04/02 05:27:19;;;;;;;16.38;10.93;;;;;;;;;;4958769;29;20126;-88
2023/04/02 05:33:06;;;;;;;15.98;10.63;;;;;;;;;;4958881;29;20046;-88
2023/04/02 05:35:35;;;;;;;27.65;18.92;;;;;;;;;;4958659;29;20035;-89
2023/04/02 05:38:01;;;;;;;17.83;10.57;;;;;;;;;;4958392;29;20039;-89
2023/04/02 05:40:48;;;;;;;5.00;3.40;;;;;;;;;;4958661;29;20054;-90
2023/04/02 05:43:16;;;;;;;5.40;4.47;;;;;;;;;;4958452;28;20127;-87
2023/04/02 05:45:44;;;;;;;5.57;3.40;;;;;;;;;;4958330;29;20425;-87
2023/04/02 05:48:18;;;;;;;5.18;4.47;;;;;;;;;;4958378;29;20074;-87
2023/04/02 05:50:46;;;;;;;6.40;5.05;;;;;;;;;;4958429;29;20070;-87
2023/04/02 05:53:21;;;;;;;7.63;5.30;;;;;;;;;;4958396;29;20039;-87
2023/04/02 05:55:56;;;;;;;8.60;5.43;;;;;;;;;;4985066;28;20432;-87
2023/04/02 06:01:14;;;;;;;7.05;3.83;;;;;;;;;;5098112;28;20554;-87
2023/04/02 06:03:52;;;;;;;7.38;4.45;;;;;;;;;;5097985;28;20052;-87
2023/04/02 06:06:23;;;;;;;7.13;4.20;;;;;;;;;;5080278;28;20020;-89
2023/04/02 06:08:52;;;;;;;6.55;4.53;;;;;;;;;;5080088;28;20060;-88
2023/04/02 06:11:21;;;;;;;6.57;3.63;;;;;;;;;;5098009;28;20028;-88
2023/04/02 06:13:48;;;;;;;9.25;4.78;;;;;;;;;;5098239;28;20024;-87
2023/04/02 06:16:15;;;;;;;13.38;5.10;;;;;;;;;;5080551;28;20115;-86
2023/04/02 06:18:42;;;;;;;5.00;3.70;;;;;;;;;;5103998;28;20038;-87
2023/04/02 06:21:10;;;;;;;6.07;4.03;;;;;;;;;;5118495;28;20107;-87
2023/04/02 06:23:39;;;;;;;7.47;3.90;;;;;;;;;;5100377;28;20020;-87
2023/04/02 06:26:05;;;;;;;5.15;3.35;;;;;;;;;;5100306;28;20036;-87
2023/04/02 06:28:51;;;;;;;4.85;3.33;;;;;;;;;;5100382;28;20027;-87
2023/04/02 06:31:28;;;;;;;6.53;5.38;;;;;;;;;;5118121;28;20055;-88
2023/04/02 06:33:55;;;;;;;12.52;7.88;;;;;;;;;;5100267;28;20110;-88
2023/04/02 06:36:22;;;;;;;16.02;10.23;;;;;;;;;;5100043;28;20115;-87
2023/04/02 06:38:49;;;;;;;28.85;16.38;;;;;;;;;;5118055;28;20370;-89
2023/04/02 06:41:20;;;;;;;18.50;11.50;;;;;;;;;;5118944;28;20034;-90
2023/04/02 06:46:58;;;;;;;13.18;8.32;;;;;;;;;;5122035;28;20050;-88
2023/04/02 06:49:38;;;;;;;10.23;6.82;;;;;;;;;;5104238;28;20039;-88
2023/04/02 06:52:06;;;;;;;12.00;7.50;;;;;;;;;;5122182;28;20047;-89
2023/04/02 06:54:32;;;;;;;10.48;6.90;;;;;;;;;;5122151;28;20039;-88
2023/04/02 06:56:58;;;;;;;10.13;5.78;;;;;;;;;;5104109;28;20038;-89
2023/04/02 07:02:27;;;;;;;11.40;7.03;;;;;;;;;;5122003;28;20027;-87
2023/04/02 07:04:58;;;;;;;9.65;5.70;;;;;;;;;;5103653;28;20444;-86
2023/04/02 07:07:24;;;;;;;9.07;5.53;;;;;;;;;;5121768;28;20031;-89
2023/04/02 07:09:50;;;;;;;9.65;6.15;;;;;;;;;;5121597;28;20035;-87
2023/04/02 07:12:19;;;;;;;10.45;6.90;;;;;;;;;;5103262;28;20122;-87
2023/04/02 07:20:52;;;;;;;9.32;6.30;;;;;;;;;;5121969;28;20065;-87
2023/04/02 07:23:19;;;;;;;51.58;20.35;;;;;;;;;;5103471;28;20027;-88
2023/04/02 07:25:46;;;;;;;116.10;45.30;;;;;;;;;;5120455;28;20438;-89
2023/04/02 07:28:13;;;;;;;324.25;123.47;;;;;;;;;;5102947;28;20037;-88
2023/04/02 07:30:40;;;;;;;256.40;104.32;;;;;;;;;;5121183;28;20016;-88
2023/04/02 07:33:06;;;;;;;78.53;42.50;;;;;;;;;;5103275;28;20073;-88
2023/04/02 07:35:33;;;;;;;66.07;37.22;;;;;;;;;;5103206;28;20028;-85
2023/04/02 07:37:59;;;;;;;24.20;16.52;;;;;;;;;;5103261;28;20031;-87
2023/04/02 07:40:25;;;;;;;44.42;22.65;;;;;;;;;;5121291;28;20031;-87
2023/04/02 07:42:51;;;;;;;27.27;15.30;;;;;;;;;;5121289;28;20046;-87
2023/04/02 07:45:17;;;;;;;15.48;9.98;;;;;;;;;;5103014;28;20092;-86
2023/04/02 07:47:43;;;;;;;15.55;9.80;;;;;;;;;;5102989;28;20055;-90
2023/04/02 07:50:10;;;;;;;32.50;15.05;;;;;;;;;;5120762;28;20023;-85
2023/04/02 07:52:41;;;;;;;25.13;11.38;;;;;;;;;;5120415;28;20028;-87
2023/04/02 07:55:08;;;;;;;18.13;10.65;;;;;;;;;;5121188;28;20031;-85
2023/04/02 07:57:37;;;;;;;9.35;5.63;;;;;;;;;;5102782;28;20425;-88
2023/04/02 08:00:05;;;;;;;15.48;7.57;;;;;;;;;;5102491;28;20038;-88
2023/04/02 08:02:32;;;;;;;10.10;6.18;;;;;;;;;;5120566;28;20032;-88
2023/04/02 08:04:58;;;;;;;22.38;12.65;;;;;;;;;;5120460;28;20126;-88
2023/04/02 08:07:26;;;;;;;38.80;14.48;;;;;;;;;;5102680;28;20019;-88
2023/04/02 08:09:52;;;;;;;36.25;14.15;;;;;;;;;;5120517;28;20028;-88
2023/04/02 08:12:18;;;;;;;36.90;15.23;;;;;;;;;;5120462;28;20031;-87
2023/04/02 08:14:44;;;;;;;24.13;11.48;;;;;;;;;;5102188;28;20072;-88
2023/04/02 08:17:10;;;;;;;16.35;9.60;;;;;;;;;;5120616;28;20031;-88
2023/04/02 08:19:37;;;;;;;11.27;7.28;;;;;;;;;;5120608;28;20024;-89
2023/04/02 08:22:03;;;;;;;10.10;6.60;;;;;;;;;;5120369;28;20031;-88
2023/04/02 08:24:29;;;;;;;10.05;5.70;;;;;;;;;;5120493;28;20034;-88
2023/04/02 08:26:56;;;;;;;5.43;4.15;;;;;;;;;;5120684;28;20032;-87
2023/04/02 08:29:22;;;;;;;9.60;5.70;;;;;;;;;;5102184;28;20421;-88
2023/04/02 08:31:48;;;;;;;8.45;5.40;;;;;;;;;;5102287;28;20027;-85
2023/04/02 08:34:14;;;;;;;9.60;4.57;;;;;;;;;;5120198;28;20070;-87
2023/04/02 08:36:43;;;;;;;8.35;5.20;;;;;;;;;;5101974;28;20023;-87
2023/04/02 08:39:12;;;;;;;8.02;5.03;;;;;;;;;;5120016;28;20456;-87
2023/04/02 08:41:45;;;;;;;9.82;7.03;;;;;;;;;;5101737;28;20043;-88
2023/04/02 08:44:23;;;;;;;11.93;6.65;;;;;;;;;;5102103;28;20028;-87
2023/04/02 08:46:55;;;;;;;12.52;8.88;;;;;;;;;;5120121;28;20027;-87
2023/04/02 08:49:27;;;;;;;7.03;5.90;;;;;;;;;;5120057;28;20020;-87
2023/04/02 08:51:53;;;;;;;5.43;3.93;;;;;;;;;;5101925;28;20065;-87
2023/04/02 08:54:27;;;;;;;6.70;4.25;;;;;;;;;;5119641;28;20284;-87
2023/04/02 08:57:08;;;;;;;6.93;4.50;;;;;;;;;;5101832;28;20413;-87
2023/04/02 08:59:44;;;;;;;5.47;3.83;;;;;;;;;;5119722;28;20027;-87
2023/04/02 09:02:29;;;;;;;6.68;3.95;;;;;;;;;;5118967;28;20027;-82
2023/04/02 09:05:00;;;;;;;7.50;5.25;;;;;;;;;;5099407;28;20076;-82
2023/04/02 09:07:27;;;;;;;4.78;3.20;;;;;;;;;;5118627;28;20020;-86
2023/04/02 09:09:53;;;;;;;5.90;4.72;;;;;;;;;;5101546;28;20322;-86
2023/04/02 09:12:20;;;;;;;4.13;2.92;;;;;;;;;;5101377;28;20114;-86
2023/04/02 09:18:09;;;;;;;6.50;4.63;;;;;;;;;;5119412;28;20034;-85
2023/04/02 09:20:35;;;;;;;5.82;4.00;;;;;;;;;;5100427;28;20042;-85
2023/04/02 09:23:01;;;;;;;12.23;5.30;;;;;;;;;;5100693;28;20036;-86
2023/04/02 09:25:31;;;;;;;31.15;20.90;;;;;;;;;;5119028;28;20421;-86
2023/04/02 09:28:00;;;;;;;29.52;15.27;;;;;;;;;;5119228;28;20099;-86
2023/04/02 09:34:00;;;;;;;12.85;8.82;;;;;;;;;;5118927;28;20065;-86
2023/04/02 09:36:32;;;;;;;6.65;5.03;;;;;;;;;;5036514;28;20116;-90
2023/04/02 09:38:59;;;;;;;;;;;;;;;;;;5036965;28;20033;-87
2023/04/02 09:41:26;;;;;;;3.35;3.05;;;;;;;;;;5036645;28;19913;-86
2023/04/02 09:44:10;;;;;;;4.53;3.50;;;;;;;;;;5019344;28;20041;-87
2023/04/02 09:47:02;;;;;;;3.60;2.45;;;;;;;;;;5036434;28;20113;-87
2023/04/02 09:49:30;;;;;;;3.83;3.20;;;;;;;;;;5036511;28;20032;-86
2023/04/02 09:52:16;;;;;;;2.80;2.40;;;;;;;;;;5036630;28;20434;-87
2023/04/02 09:54:43;;;;;;;4.82;3.35;;;;;;;;;;5036280;28;20120;-87
2023/04/02 09:57:26;;;;;;;5.30;3.50;;;;;;;;;;5036503;28;20034;-87
2023/04/02 10:03:03;;;;;;;7.72;3.97;;;;;;;;;;5036382;28;20044;-87
2023/04/02 10:05:30;;;;;;;3.20;2.90;;;;;;;;;;5036207;28;20069;-87
2023/04/02 10:08:05;;;;;;;13.15;7.22;;;;;;;;;;5036170;28;20033;-88
2023/04/02 10:10:35;;;;;;;6.70;3.78;;;;;;;;;;5036075;28;20025;-85
2023/04/02 10:13:23;;;;;;;6.07;4.57;;;;;;;;;;5068267;28;20035;-88
2023/04/02 10:15:55;;;;;;;4.90;3.42;;;;;;;;;;5116885;28;20051;-85
2023/04/02 10:18:40;;;;;;;7.55;4.95;;;;;;;;;;5100043;28;20055;-84
2023/04/02 10:21:07;;;;;;;5.47;3.58;;;;;;;;;;5118328;28;20048;-84
2023/04/02 10:23:34;;;;;;;10.55;7.15;;;;;;;;;;5099349;28;20073;-84
2023/04/02 10:26:00;;;;;;;6.22;4.70;;;;;;;;;;5099845;28;20030;-85
2023/04/02 10:28:29;;;;;;;5.43;3.33;;;;;;;;;;5117945;28;20405;-85
2023/04/02 10:31:24;;;;;;;7.28;3.22;;;;;;;;;;5117971;28;20030;-85
2023/04/02 10:33:51;;;;;;;10.90;5.80;;;;;;;;;;5015633;28;20037;-84
2023/04/02 10:36:32;;;;;;;6.38;3.38;;;;;;;;;;4999302;28;20456;-85
2023/04/02 10:39:17;;;;;;;4.30;3.40;;;;;;;;;;5015864;28;20034;-86
2023/04/02 10:41:52;;;;;;;5.57;3.13;;;;;;;;;;4999092;28;20042;-87
2023/04/02 10:57:16;;;;;;;6.35;3.40;;;;;;;;;;5074884;28;20890;-87
2023/04/02 10:59:51;;;;;;;4.40;3.60;;;;;;;;;;5075097;28;20060;-87
2023/04/02 11:02:35;;;;;;;3.28;2.83;;;;;;;;;;5074975;28;20321;-87
2023/04/02 11:05:05;;;;;;;4.18;3.00;;;;;;;;;;5075014;28;20029;-87
2023/04/02 11:07:43;;;;;;;5.75;3.75;;;;;;;;;;5073791;28;20021;-87
2023/04/02 11:10:14;;;;;;;4.47;3.42;;;;;;;;;;5074605;28;20021;-87
2023/04/02 11:12:42;;;;;;;3.78;2.80;;;;;;;;;;5073607;28;20025;-86
2023/04/02 11:15:15;;;;;;;3.80;3.35;;;;;;;;;;5074551;28;20020;-86
2023/04/02 11:17:42;;;;;;;5.95;3.13;;;;;;;;;;5074841;28;20421;-86
2023/04/02 11:20:47;;;;;;;4.43;2.67;;;;;;;;;;5073005;28;20031;-86
2023/04/02 11:23:14;;;;;;;4.43;2.72;;;;;;;;;;5032838;28;20026;-84
2023/04/02 11:25:41;;;;;;;6.53;2.83;;;;;;;;;;5032521;28;20121;-88
2023/04/02 11:28:28;;;;;;;4.72;2.80;;;;;;;;;;5015879;28;20033;-88
2023/04/02 11:37:02;;;;;;;5.53;4.20;;;;;;;;;;5032864;28;20037;-88
2023/04/02 11:39:48;;;;;;;3.92;3.03;;;;;;;;;;5016109;28;20048;-88
2023/04/02 11:42:28;;;;;;;2.95;2.10;;;;;;;;;;5016225;28;20037;-88
2023/04/02 11:44:55;;;;;;;7.45;3.55;;;;;;;;;;5032648;28;20108;-88
2023/04/02 11:47:26;;;;;;;4.38;2.10;;;;;;;;;;5015852;28;20049;-86
2023/04/02 11:49:57;;;;;;;4.35;1.80;;;;;;;;;;5032172;28;20037;-87
2023/04/02 11:52:28;;;;;;;4.60;1.90;;;;;;;;;;5012459;28;20022;-86
2023/04/02 11:55:13;;;;;;;2.23;2.03;;;;;;;;;;5049221;28;20048;-89
2023/04/02 11:57:39;;;;;;;2.20;1.80;;;;;;;;;;5043120;28;20377;-87
2023/04/02 12:00:12;;;;;;;2.63;1.30;;;;;;;;;;5041032;28;20033;-89
2023/04/02 12:02:55;;;;;;;1.50;1.40;;;;;;;;;;5039948;28;20041;-87
2023/04/02 12:05:26;;;;;;;2.58;1.80;;;;;;;;;;5040314;28;20494;-88
2023/04/02 12:07:55;;;;;;;4.60;2.67;;;;;;;;;;5040573;28;20032;-89
2023/04/02 12:10:27;;;;;;;2.85;1.70;;;;;;;;;;5039506;28;20029;-88
2023/04/02 12:12:53;;;;;;;1.83;1.20;;;;;;;;;;5040375;28;20419;-89
2023/04/02 12:15:26;;;;;;;1.70;1.60;;;;;;;;;;5040378;28;20036;-88
2023/04/02 12:17:52;;;;;;;2.67;2.30;;;;;;;;;;5040321;28;20034;-89
2023/04/02 12:20:20;;;;;;;2.10;1.80;;;;;;;;;;5038881;28;20036;-89
2023/04/02 12:22:51;;;;;;;3.22;1.98;;;;;;;;;;5039272;28;20477;-87
2023/04/02 12:25:23;;;;;;;5.20;2.75;;;;;;;;;;5040106;28;20323;-87
2023/04/02 12:27:49;;;;;;;;;;;;;;;;;;5039523;28;20032;-87
2023/04/02 12:30:40;;;;;;;2.85;2.13;;;;;;;;;;5040153;28;19912;-88
2023/04/02 12:33:16;;;;;;;2.45;2.00;;;;;;;;;;5039781;28;20037;-88
2023/04/02 12:35:43;;;;;;;12.75;4.97;;;;;;;;;;5039133;28;20025;-90
2023/04/02 12:38:22;;;;;;;4.03;2.47;;;;;;;;;;5039130;28;20025;-90
2023/04/02 12:40:52;;;;;;;2.65;1.85;;;;;;;;;;5039640;28;20414;-91
2023/04/02 12:43:29;;;;;;;2.45;1.83;;;;;;;;;;5039919;28;20025;-91
2023/04/02 12:49:30;;;;;;;4.35;2.10;;;;;;;;;;5039835;28;20095;-92
2023/04/02 12:51:56;;;;;;;8.65;4.35;;;;;;;;;;5039491;28;20040;-91
2023/04/02 12:54:23;;;;;;;6.47;2.42;;;;;;;;;;5038574;28;20018;-90
2023/04/02 12:56:50;;;;;;;7.18;4.13;;;;;;;;;;5039311;28;20095;-91
2023/04/02 12:59:42;;;;;;;7.60;3.45;;;;;;;;;;5039288;28;20036;-91
2023/04/02 13:02:08;;;;;;;;;;;;;;;;;;5037918;28;20035;-91
2023/04/02 13:04:45;;;;;;;5.43;3.53;;;;;;;;;;5038206;28;19992;-91
2023/04/02 13:07:14;;;;;;;4.90;2.05;;;;;;;;;;5038483;28;20021;-90
2023/04/02 13:09:46;;;;;;;6.47;3.75;;;;;;;;;;5038433;28;20025;-89
2023/04/02 13:12:25;;;;;;;5.60;2.30;;;;;;;;;;5039390;28;20075;-91
2023/04/02 13:14:55;;;;;;;2.97;1.85;;;;;;;;;;5039312;28;20045;-91
2023/04/02 13:17:40;;;;;;;9.90;5.88;;;;;;;;;;5038154;28;20029;-90
2023/04/02 13:20:25;;;;;;;10.80;5.82;;;;;;;;;;5037981;28;20028;-90
2023/04/02 13:22:51;;;;;;;6.82;2.75;;;;;;;;;;5038859;28;20059;-89
2023/04/02 13:25:17;;;;;;;4.18;2.10;;;;;;;;;;5037715;28;20314;-90
2023/04/02 13:27:43;;;;;;;5.45;3.70;;;;;;;;;;5039055;28;20034;-90
2023/04/02 13:30:10;;;;;;;2.33;1.58;;;;;;;;;;5038749;28;20407;-90
2023/04/02 13:32:36;;;;;;;3.15;2.17;;;;;;;;;;5038959;28;20036;-92
2023/04/02 13:35:03;;;;;;;2.25;1.75;;;;;;;;;;5037877;28;20081;-89
2023/04/02 13:37:29;;;;;;;3.75;1.88;;;;;;;;;;5037864;28;20029;-90
2023/04/02 13:39:55;;;;;;;2.05;1.85;;;;;;;;;;5038618;28;20029;-89
2023/04/02 13:42:21;;;;;;;3.28;1.80;;;;;;;;;;5038526;28;20057;-91
2023/04/02 13:44:48;;;;;;;6.80;3.95;;;;;;;;;;5037374;28;20032;-90
2023/04/02 13:47:14;;;;;;;2.50;2.30;;;;;;;;;;5038728;28;20022;-90
2023/04/02 13:49:40;;;;;;;4.78;2.40;;;;;;;;;;5038326;28;20438;-90
2023/04/02 13:52:09;;;;;;;2.40;2.05;;;;;;;;;;5038568;28;20272;-90
2023/04/02 13:54:36;;;;;;;3.33;2.70;;;;;;;;;;5038477;28;20105;-90
2023/04/02 13:57:02;;;;;;;4.72;3.10;;;;;;;;;;5038125;28;20083;-91
2023/04/02 13:59:28;;;;;;;3.08;2.50;;;;;;;;;;5037205;28;20018;-90
2023/04/02 14:08:05;;;;;;;2.78;1.88;;;;;;;;;;5038588;28;20068;-90
2023/04/02 14:10:43;;;;;;;3.28;2.97;;;;;;;;;;5037482;28;20033;-90
2023/04/02 14:13:28;;;;;;;4.18;2.30;;;;;;;;;;5037072;28;20120;-91
2023/04/02 14:16:13;;;;;;;3.70;2.40;;;;;;;;;;5036831;28;20025;-90
2023/04/02 14:18:40;;;;;;;6.07;3.08;;;;;;;;;;5036950;28;20069;-89
2023/04/02 14:21:06;;;;;;;6.85;3.03;;;;;;;;;;5037541;28;20477;-90
2023/04/02 14:23:48;;;;;;;4.93;2.58;;;;;;;;;;5037956;28;20026;-91
2023/04/02 14:26:30;;;;;;;4.32;2.50;;;;;;;;;;5037864;28;20036;-90
2023/04/02 14:29:00;;;;;;;5.82;2.50;;;;;;;;;;5037972;28;20033;-93
2023/04/02 14:31:32;;;;;;;5.80;3.38;;;;;;;;;;5037973;28;20037;-89
2023/04/02 14:34:37;;;;;;;7.10;3.63;;;;;;;;;;5037981;28;20369;-90
2023/04/02 14:37:20;;;;;;;2.03;1.67;;;;;;;;;;4996810;28;20031;-90
2023/04/02 14:39:49;;;;;;;3.03;1.80;;;;;;;;;;4996666;28;20121;-90
2023/04/02 14:42:18;;;;;;;2.35;1.88;;;;;;;;;;4996734;28;20042;-89
2023/04/02 14:44:54;;;;;;;3.97;2.47;;;;;;;;;;4996511;28;20031;-90
2023/04/02 14:47:30;;;;;;;5.55;3.17;;;;;;;;;;4980291;28;20054;-90
2023/04/02 14:50:00;;;;;;;13.25;6.30;;;;;;;;;;4996480;28;20468;-90
2023/04/02 14:52:28;;;;;;;25.15;13.07;;;;;;;;;;4996455;28;20049;-90
2023/04/02 14:55:20;;;;;;;46.00;25.08;;;;;;;;;;4996380;28;20042;-89
2023/04/02 14:57:50;;;;;;;38.55;20.52;;;;;;;;;;4993959;28;20469;-89
2023/04/02 15:00:19;;;;;;;24.27;13.60;;;;;;;;;;4996421;28;20069;-90
2023/04/02 15:05:52;;;;;;;4.28;3.28;;;;;;;;;;4996540;28;20096;-89
2023/04/02 15:08:47;;;;;;;3.88;2.85;;;;;;;;;;5025872;28;20029;-89
2023/04/02 15:11:18;;;;;;;3.90;2.20;;;;;;;;;;4996364;28;20046;-88
2023/04/02 15:14:02;;;;;;;4.43;2.95;;;;;;;;;;4980280;28;20039;-90
2023/04/02 15:16:31;;;;;;;3.50;2.40;;;;;;;;;;4996598;28;20062;-90
2023/04/02 15:18:58;;;;;;;9.15;2.95;;;;;;;;;;4996364;28;20460;-90
2023/04/02 15:21:34;;;;;;;4.13;3.15;;;;;;;;;;4996109;28;20058;-90
2023/04/02 15:24:18;;;;;;;6.78;3.88;;;;;;;;;;4996352;28;20113;-91
2023/04/02 15:26:57;;;;;;;9.82;5.05;;;;;;;;;;4980169;28;20448;-91
2023/04/02 15:29:38;;;;;;;3.85;2.60;;;;;;;;;;4980175;28;20038;-89
2023/04/02 15:32:11;;;;;;;14.53;5.13;;;;;;;;;;4997424;28;20042;-90
2023/04/02 15:35:04;;;;;;;10.20;3.85;;;;;;;;;;4983777;28;20132;-90
2023/04/02 15:37:35;;;;;;;16.10;5.72;;;;;;;;;;4944938;29;20129;-91
2023/04/02 15:40:13;;;;;;;13.87;4.87;;;;;;;;;;4961120;29;20031;-90
2023/04/02 15:42:44;;;;;;;24.77;9.27;;;;;;;;;;4961065;29;20292;-89
2023/04/02 15:45:26;;;;;;;12.50;6.35;;;;;;;;;;4961122;29;20046;-89
2023/04/02 15:48:00;;;;;;;6.95;2.50;;;;;;;;;;4984886;28;20042;-91
2023/04/02 15:50:38;;;;;;;5.65;3.15;;;;;;;;;;4999155;28;20027;-90
2023/04/02 15:53:23;;;;;;;7.15;4.00;;;;;;;;;;4983360;28;20031;-89
2023/04/02 15:55:54;;;;;;;3.88;2.40;;;;;;;;;;4998918;28;20042;-87
2023/04/02 15:58:22;;;;;;;2.40;1.80;;;;;;;;;;4994525;28;20057;-80
2023/04/02 16:01:07;;;;;;;1.95;1.75;;;;;;;;;;4998555;28;20164;-85
2023/04/02 16:03:52;;;;;;;2.58;2.13;;;;;;;;;;4982969;28;20356;-86
2023/04/02 16:06:33;;;;;;;4.35;1.70;;;;;;;;;;4982588;28;20038;-85
2023/04/02 16:09:22;;;;;;;1.95;1.77;;;;;;;;;;4998834;28;20073;-84
2023/04/02 16:11:50;;;;;;;2.90;2.30;;;;;;;;;;4997819;28;20030;-84
2023/04/02 16:14:21;;;;;;;5.85;3.42;;;;;;;;;;5019628;28;20040;-84
2023/04/02 16:17:06;;;;;;;4.47;3.38;;;;;;;;;;5039845;28;20055;-85
2023/04/02 16:19:34;;;;;;;4.57;2.92;;;;;;;;;;5039858;28;20026;-84
2023/04/02 16:22:36;;;;;;;3.67;1.80;;;;;;;;;;5040204;28;20047;-85
2023/04/02 16:25:18;;;;;;;1.90;1.75;;;;;;;;;;5018410;28;20038;-85
2023/04/02 16:27:44;;;;;;;;;;;;;;;;;;5018625;28;20117;-85